X-preSS Tajumulco — 9V2362 — position and weather

sailwx.info

Track history (hours):
 
Tides and Currents Weather Stations Pressure Air Temp Water Temp Dewpoint Dewpoint Depression Visibility Wind Speed Wind Dir Waves Ship Positions

X-preSS Tajumulco

Last reported at 2018-Apr-24 23:24 UTC. Time now 2018-Apr-25 06:58 UTC.
Position N 11°18' W 074°28'.

Length 140 m; draft 6.9 m.

Type: Ship (hazmat cat A). MMSI: 564050000.

Date/timePositionNaut miles runAvg speedWind from/ knotsBaromVisibWave heightAir tempDewpointWater temp
2018-Apr-24 23:24N 11°18' W 074°28'1 1.3
2018-Apr-24 22:33N 11°19' W 074°27'0 1.2
2018-Apr-24 22:24N 11°19' W 074°27'16 3.9
2018-Apr-24 18:14N 11°11' W 074°42'413.0
2018-Apr-24 17:55N 11°10' W 074°46'512.5
2018-Apr-24 17:30N 11°10' W 074°51'4 6.9
2018-Apr-24 16:58N 11°06' W 074°51'612.9
2018-Apr-24 16:30N 11°01' W 074°47'4 7.4
2018-Apr-24 16:00N 10°58' W 074°46'0 0.0
2018-Apr-24 15:30N 10°58' W 074°46'0 0.0
2018-Apr-24 15:00N 10°58' W 074°46'0 0.0
2018-Apr-24 14:30N 10°58' W 074°46'0 0.0
2018-Apr-24 14:00N 10°58' W 074°46'0 0.0
2018-Apr-24 13:30N 10°58' W 074°46'0 0.0
2018-Apr-24 12:57N 10°58' W 074°46'0 0.0
2018-Apr-24 12:30N 10°58' W 074°46'0 0.0
2018-Apr-24 12:00N 10°58' W 074°46'0 0.0
2018-Apr-24 11:30N 10°58' W 074°46'0 0.0
2018-Apr-24 11:00N 10°58' W 074°46'0 0.0
2018-Apr-24 10:30N 10°58' W 074°46'0 0.0
2018-Apr-24 10:00N 10°58' W 074°46'0 0.0
2018-Apr-24 09:30N 10°58' W 074°46'0 0.0
2018-Apr-24 09:00N 10°58' W 074°46'0 0.0
2018-Apr-24 08:30N 10°58' W 074°46'0 0.0
2018-Apr-24 08:00N 10°58' W 074°46'0 0.0
2018-Apr-24 07:27N 10°58' W 074°46'0 0.0
2018-Apr-24 07:00N 10°58' W 074°46'0 0.0
2018-Apr-24 06:30N 10°58' W 074°46'0 0.0
2018-Apr-24 05:57N 10°58' W 074°46'0 0.0
2018-Apr-24 05:30N 10°58' W 074°46'0 0.0
2018-Apr-24 05:00N 10°58' W 074°46'0 0.0
2018-Apr-24 04:27N 10°58' W 074°46'0 0.1
2018-Apr-24 03:59N 10°58' W 074°45'3 6.5
2018-Apr-24 03:29N 11°01' W 074°47'4 8.8
2018-Apr-24 03:00N 11°04' W 074°50'4 7.8
2018-Apr-24 02:30N 11°07' W 074°53'510.2
2018-Apr-24 01:59N 11°07' W 074°58'611.5
2018-Apr-24 01:30N 11°05' W 075°03'711.3
2018-Apr-24 00:53N 11°03' W 075°10'292 6.6
2018-Apr-22 04:31N 09°30' W 079°51'012.3
2018-Apr-22 04:29N 09°30' W 079°51'611.5
2018-Apr-22 04:00N 09°25' W 079°54'2 4.7
2018-Apr-22 03:29N 09°22' W 079°53'0 0.0
2018-Apr-22 02:59N 09°22' W 079°53'0 0.0
2018-Apr-22 02:29N 09°22' W 079°53'0 0.0
2018-Apr-22 01:59N 09°22' W 079°53'0 0.0
2018-Apr-22 01:29N 09°22' W 079°53'0 0.0
2018-Apr-22 00:59N 09°22' W 079°53'0 0.0
2018-Apr-22 00:29N 09°22' W 079°53'0 0.0
2018-Apr-21 23:59N 09°22' W 079°53'0 0.1
2018-Apr-21 23:29N 09°22' W 079°53'1 1.5
2018-Apr-21 23:00N 09°22' W 079°53'0 0.6
2018-Apr-21 22:28N 09°21' W 079°53'0 0.0
2018-Apr-21 21:58N 09°21' W 079°53'0 0.0
2018-Apr-21 21:28N 09°21' W 079°53'0 0.0
2018-Apr-21 20:58N 09°21' W 079°53'0 0.0
2018-Apr-21 20:28N 09°21' W 079°53'0 0.0
2018-Apr-21 19:58N 09°21' W 079°53'0 0.0
2018-Apr-21 19:28N 09°21' W 079°53'0 0.0
2018-Apr-21 18:58N 09°21' W 079°53'0 0.0
2018-Apr-21 18:28N 09°21' W 079°53'0 0.0
2018-Apr-21 17:58N 09°21' W 079°53'0 0.0
2018-Apr-21 17:28N 09°21' W 079°53'0 0.0
2018-Apr-21 16:58N 09°21' W 079°53'0 0.0
2018-Apr-21 16:28N 09°21' W 079°53'0 0.0
2018-Apr-21 15:58N 09°21' W 079°53'0 0.0
2018-Apr-21 15:28N 09°21' W 079°53'0 0.0
2018-Apr-21 14:58N 09°21' W 079°53'0 0.0
2018-Apr-21 14:28N 09°21' W 079°53'0 0.0
2018-Apr-21 13:58N 09°21' W 079°53'1 1.4
2018-Apr-21 13:31N 09°22' W 079°53'3 5.5
2018-Apr-21 13:00N 09°25' W 079°54'0 0.5
2018-Apr-21 12:30N 09°25' W 079°54'2 4.3
2018-Apr-21 12:01N 09°26' W 079°53'0 0.4
2018-Apr-21 11:29N 09°26' W 079°53'0 0.1
2018-Apr-21 10:59N 09°26' W 079°53'0 0.0
2018-Apr-21 10:26N 09°26' W 079°53'0 0.1
2018-Apr-21 09:59N 09°26' W 079°53'0 0.0
2018-Apr-21 09:26N 09°26' W 079°53'0 0.0
2018-Apr-21 08:59N 09°26' W 079°53'0 0.0
2018-Apr-21 08:29N 09°26' W 079°53'0 0.0
2018-Apr-21 07:56N 09°26' W 079°53'0 0.0
2018-Apr-21 07:29N 09°26' W 079°53'0 0.0
2018-Apr-21 06:50N 09°26' W 079°53'0 0.0
2018-Apr-21 06:29N 09°26' W 079°53'0 0.0
2018-Apr-21 05:59N 09°26' W 079°53'0 0.0
2018-Apr-21 05:29N 09°26' W 079°53'0 0.0
2018-Apr-21 04:59N 09°26' W 079°53'0 0.0
2018-Apr-21 04:29N 09°26' W 079°53'0 0.0
2018-Apr-21 03:56N 09°26' W 079°53'0 0.0
2018-Apr-21 03:29N 09°26' W 079°53'0 0.0
2018-Apr-21 02:59N 09°26' W 079°53'0 0.0
2018-Apr-21 02:29N 09°26' W 079°53'0 0.0
2018-Apr-21 01:56N 09°26' W 079°53'0 0.0
2018-Apr-21 01:29N 09°26' W 079°53'0 0.0
2018-Apr-21 00:59N 09°26' W 079°53'0 0.0
2018-Apr-21 00:29N 09°26' W 079°53'0 0.0
2018-Apr-20 23:59N 09°26' W 079°53'0 0.0
2018-Apr-20 23:29N 09°26' W 079°53'0 0.0
2018-Apr-20 22:56N 09°26' W 079°53'0 0.0
2018-Apr-20 22:29N 09°26' W 079°53'0 0.0
2018-Apr-20 21:59N 09°26' W 079°53'0 0.0
2018-Apr-20 21:29N 09°26' W 079°53'0 0.0
2018-Apr-20 20:59N 09°26' W 079°53'0 0.0
2018-Apr-20 20:26N 09°26' W 079°53'0 0.0
2018-Apr-20 19:59N 09°26' W 079°53'0 0.0
2018-Apr-20 19:29N 09°26' W 079°53'0 0.0
2018-Apr-20 18:59N 09°26' W 079°53'0 0.0
2018-Apr-20 18:29N 09°26' W 079°53'0 0.0
2018-Apr-20 17:59N 09°26' W 079°53'0 0.0
2018-Apr-20 17:23N 09°26' W 079°53'0 0.1
2018-Apr-20 16:59N 09°26' W 079°53'0 0.0
2018-Apr-20 16:29N 09°26' W 079°53'0 0.0
2018-Apr-20 15:57N 09°26' W 079°53'0 0.1
2018-Apr-20 15:30N 09°26' W 079°53'0 0.0
2018-Apr-20 15:00N 09°26' W 079°53'0 0.0
2018-Apr-20 14:30N 09°26' W 079°53'0 0.0
2018-Apr-20 13:57N 09°26' W 079°53'0 0.1
2018-Apr-20 13:30N 09°26' W 079°53'0 0.0
2018-Apr-20 12:57N 09°26' W 079°53'0 0.1
2018-Apr-20 12:30N 09°26' W 079°53'0 0.0
2018-Apr-20 12:00N 09°26' W 079°53'0 0.0
2018-Apr-20 11:30N 09°26' W 079°53'0 0.1
2018-Apr-20 11:00N 09°26' W 079°53'0 0.1
2018-Apr-20 10:30N 09°26' W 079°53'0 0.0
2018-Apr-20 09:57N 09°26' W 079°53'0 0.1
2018-Apr-20 09:30N 09°26' W 079°53'0 0.0
2018-Apr-20 09:00N 09°26' W 079°53'0 0.0
2018-Apr-20 08:30N 09°26' W 079°53'0 0.0
2018-Apr-20 08:00N 09°26' W 079°53'0 0.0
2018-Apr-20 07:30N 09°26' W 079°53'0 0.0
2018-Apr-20 07:00N 09°26' W 079°53'0 0.0
2018-Apr-20 06:30N 09°26' W 079°53'0 0.0
2018-Apr-20 06:00N 09°26' W 079°53'0 0.0
2018-Apr-20 05:27N 09°26' W 079°53'0 0.0
2018-Apr-20 04:54N 09°26' W 079°53'0 0.0
2018-Apr-20 04:30N 09°26' W 079°53'0 0.0
2018-Apr-20 04:00N 09°26' W 079°53'0 0.0
2018-Apr-20 03:27N 09°26' W 079°53'0 0.0
2018-Apr-20 02:57N 09°26' W 079°53'0 0.0
2018-Apr-20 02:30N 09°26' W 079°53'0 0.0
2018-Apr-20 02:00N 09°26' W 079°53'0 0.0
2018-Apr-20 01:30N 09°26' W 079°53'0 0.0
2018-Apr-20 01:00N 09°26' W 079°53'0 0.0
2018-Apr-20 00:18N 09°26' W 079°53'0 0.0
2018-Apr-19 23:54N 09°26' W 079°53'0 0.1
2018-Apr-19 23:30N 09°26' W 079°53'0 0.0
2018-Apr-19 23:00N 09°26' W 079°53'0 0.0
2018-Apr-19 22:30N 09°26' W 079°53'0 0.0
2018-Apr-19 22:00N 09°26' W 079°53'0 0.0
2018-Apr-19 21:21N 09°26' W 079°53'0 0.0
2018-Apr-19 21:00N 09°26' W 079°53'0 0.0
2018-Apr-19 20:30N 09°26' W 079°53'0 0.0
2018-Apr-19 20:00N 09°26' W 079°53'0 0.0
2018-Apr-19 19:30N 09°26' W 079°53'0 0.0
2018-Apr-19 19:00N 09°26' W 079°53'0 0.0
2018-Apr-19 18:30N 09°26' W 079°53'0 0.0
2018-Apr-19 18:00N 09°26' W 079°53'0 0.0
2018-Apr-19 17:30N 09°26' W 079°53'0 0.1
2018-Apr-19 17:00N 09°26' W 079°53'3 6.5
2018-Apr-19 16:30N 09°23' W 079°54'2 2.9
2018-Apr-19 15:58N 09°22' W 079°53'0 0.0
2018-Apr-19 15:28N 09°22' W 079°53'0 0.0
2018-Apr-19 14:58N 09°22' W 079°53'1 1.4
2018-Apr-19 14:30N 09°22' W 079°53'0 0.3
2018-Apr-19 13:58N 09°22' W 079°53'0 0.0
2018-Apr-19 13:28N 09°22' W 079°53'0 0.0
2018-Apr-19 12:58N 09°22' W 079°53'0 0.0
2018-Apr-19 12:28N 09°22' W 079°53'0 0.0
2018-Apr-19 11:58N 09°22' W 079°53'0 0.0
2018-Apr-19 11:28N 09°22' W 079°53'0 0.0
2018-Apr-19 10:58N 09°22' W 079°53'0 0.0
2018-Apr-19 10:28N 09°22' W 079°53'0 0.0
2018-Apr-19 09:58N 09°22' W 079°53'0 0.0
2018-Apr-19 09:28N 09°22' W 079°53'0 0.0
2018-Apr-19 08:58N 09°22' W 079°53'0 0.0
2018-Apr-19 08:28N 09°22' W 079°53'0 0.0
2018-Apr-19 07:58N 09°22' W 079°53'0 0.0
2018-Apr-19 07:25N 09°22' W 079°53'0 0.0
2018-Apr-19 06:58N 09°22' W 079°53'0 0.0
2018-Apr-19 06:28N 09°22' W 079°53'0 0.0
2018-Apr-19 05:58N 09°22' W 079°53'0 0.0
2018-Apr-19 05:28N 09°22' W 079°53'0 0.0
2018-Apr-19 04:58N 09°22' W 079°53'0 0.0
2018-Apr-19 04:28N 09°22' W 079°53'0 0.0
2018-Apr-19 03:58N 09°22' W 079°53'0 0.0
2018-Apr-19 03:28N 09°22' W 079°53'0 0.0
2018-Apr-19 02:58N 09°22' W 079°53'0 0.0
2018-Apr-19 02:28N 09°22' W 079°53'0 0.0
2018-Apr-19 01:58N 09°22' W 079°53'0 0.0
2018-Apr-19 01:28N 09°22' W 079°53'0 0.0
2018-Apr-19 00:57N 09°22' W 079°53'1 1.4
2018-Apr-19 00:30N 09°22' W 079°54'2 4.6
2018-Apr-19 00:00N 09°25' W 079°54'5 9.9
2018-Apr-18 23:30N 09°29' W 079°57'713.3
2018-Apr-18 22:58N 09°32' W 080°03'  
2018-Apr-15 21:32N 09°33' W 079°56'011.9
2018-Apr-15 21:30N 09°33' W 079°56'510.8
2018-Apr-15 21:00N 09°28' W 079°54'510.9
2018-Apr-15 20:30N 09°22' W 079°54'1 1.2
2018-Apr-15 20:00N 09°22' W 079°53'0 0.0
2018-Apr-15 19:30N 09°22' W 079°53'0 0.0
2018-Apr-15 19:00N 09°22' W 079°53'0 0.0
2018-Apr-15 18:30N 09°22' W 079°53'0 0.0
2018-Apr-15 18:00N 09°22' W 079°53'0 0.0
2018-Apr-15 17:30N 09°22' W 079°53'0 0.0
2018-Apr-15 17:00N 09°22' W 079°53'0 0.0
2018-Apr-15 16:30N 09°22' W 079°53'0 0.0
2018-Apr-15 16:00N 09°22' W 079°53'0 0.0
2018-Apr-15 15:30N 09°22' W 079°53'0 0.0
2018-Apr-15 15:00N 09°22' W 079°53'0 0.0
2018-Apr-15 14:30N 09°22' W 079°53'0 0.0
2018-Apr-15 14:00N 09°22' W 079°53'0 0.0
2018-Apr-15 13:30N 09°22' W 079°53'0 0.0
2018-Apr-15 13:00N 09°22' W 079°53'0 0.0
2018-Apr-15 12:30N 09°22' W 079°53'0 0.0
2018-Apr-15 12:00N 09°22' W 079°53'0 0.0
2018-Apr-15 11:30N 09°22' W 079°53'0 0.0
2018-Apr-15 11:00N 09°22' W 079°53'0 0.0
2018-Apr-15 10:30N 09°22' W 079°53'0 0.0
2018-Apr-15 10:00N 09°22' W 079°53'0 0.0
2018-Apr-15 09:30N 09°22' W 079°53'0 0.1
2018-Apr-15 09:00N 09°22' W 079°53'1 1.9
2018-Apr-15 08:30N 09°21' W 079°53'0 0.0
2018-Apr-15 07:59N 09°21' W 079°53'0 0.0
2018-Apr-15 07:29N 09°21' W 079°53'0 0.0
2018-Apr-15 06:59N 09°21' W 079°53'0 0.0
2018-Apr-15 06:29N 09°21' W 079°53'0 0.0
2018-Apr-15 05:59N 09°21' W 079°53'0 0.0
2018-Apr-15 05:29N 09°21' W 079°53'0 0.0
2018-Apr-15 04:59N 09°21' W 079°53'0 0.0
2018-Apr-15 04:29N 09°21' W 079°53'0 0.0
2018-Apr-15 03:59N 09°21' W 079°53'0 0.0
2018-Apr-15 03:29N 09°21' W 079°53'0 0.0
2018-Apr-15 02:59N 09°21' W 079°53'0 0.0
2018-Apr-15 02:29N 09°21' W 079°53'0 0.0
2018-Apr-15 01:59N 09°21' W 079°53'0 0.0
2018-Apr-15 01:29N 09°21' W 079°53'0 0.0
2018-Apr-15 00:59N 09°21' W 079°53'0 0.0
2018-Apr-15 00:29N 09°21' W 079°53'0 0.0
2018-Apr-14 23:59N 09°21' W 079°53'0 0.0
2018-Apr-14 23:29N 09°21' W 079°53'  
Track history (hours):
 
Tides and Currents Weather Stations Pressure Air Temp Water Temp Dewpoint Dewpoint Depression Visibility Wind Speed Wind Dir Waves Ship Positions

X-preSS Tajumulco

Last reported at 2018-Apr-24 23:24 UTC. Time now 2018-Apr-25 06:58 UTC.
Position N 11°18' W 074°28'.

Length 140 m; draft 6.9 m.

Type: Ship (hazmat cat A). MMSI: 564050000.

Date/timePositionNaut miles runAvg speedWind from/ knotsBaromVisibWave heightAir tempDewpointWater temp
2018-Apr-24 23:24N 11°18' W 074°28'1 1.3
2018-Apr-24 22:33N 11°19' W 074°27'0 1.2
2018-Apr-24 22:24N 11°19' W 074°27'16 3.9
2018-Apr-24 18:14N 11°11' W 074°42'413.0
2018-Apr-24 17:55N 11°10' W 074°46'512.5
2018-Apr-24 17:30N 11°10' W 074°51'4 6.9
2018-Apr-24 16:58N 11°06' W 074°51'612.9
2018-Apr-24 16:30N 11°01' W 074°47'4 7.4
2018-Apr-24 16:00N 10°58' W 074°46'0 0.0
2018-Apr-24 15:30N 10°58' W 074°46'0 0.0
2018-Apr-24 15:00N 10°58' W 074°46'0 0.0
2018-Apr-24 14:30N 10°58' W 074°46'0 0.0
2018-Apr-24 14:00N 10°58' W 074°46'0 0.0
2018-Apr-24 13:30N 10°58' W 074°46'0 0.0
2018-Apr-24 12:57N 10°58' W 074°46'0 0.0
2018-Apr-24 12:30N 10°58' W 074°46'0 0.0
2018-Apr-24 12:00N 10°58' W 074°46'0 0.0
2018-Apr-24 11:30N 10°58' W 074°46'0 0.0
2018-Apr-24 11:00N 10°58' W 074°46'0 0.0
2018-Apr-24 10:30N 10°58' W 074°46'0 0.0
2018-Apr-24 10:00N 10°58' W 074°46'0 0.0
2018-Apr-24 09:30N 10°58' W 074°46'0 0.0
2018-Apr-24 09:00N 10°58' W 074°46'0 0.0
2018-Apr-24 08:30N 10°58' W 074°46'0 0.0
2018-Apr-24 08:00N 10°58' W 074°46'0 0.0
2018-Apr-24 07:27N 10°58' W 074°46'0 0.0
2018-Apr-24 07:00N 10°58' W 074°46'0 0.0
2018-Apr-24 06:30N 10°58' W 074°46'0 0.0
2018-Apr-24 05:57N 10°58' W 074°46'0 0.0
2018-Apr-24 05:30N 10°58' W 074°46'0 0.0
2018-Apr-24 05:00N 10°58' W 074°46'0 0.0
2018-Apr-24 04:27N 10°58' W 074°46'0 0.1
2018-Apr-24 03:59N 10°58' W 074°45'3 6.5
2018-Apr-24 03:29N 11°01' W 074°47'4 8.8
2018-Apr-24 03:00N 11°04' W 074°50'4 7.8
2018-Apr-24 02:30N 11°07' W 074°53'510.2
2018-Apr-24 01:59N 11°07' W 074°58'611.5
2018-Apr-24 01:30N 11°05' W 075°03'711.3
2018-Apr-24 00:53N 11°03' W 075°10'292 6.6
2018-Apr-22 04:31N 09°30' W 079°51'012.3
2018-Apr-22 04:29N 09°30' W 079°51'611.5
2018-Apr-22 04:00N 09°25' W 079°54'2 4.7
2018-Apr-22 03:29N 09°22' W 079°53'0 0.0
2018-Apr-22 02:59N 09°22' W 079°53'0 0.0
2018-Apr-22 02:29N 09°22' W 079°53'0 0.0
2018-Apr-22 01:59N 09°22' W 079°53'0 0.0
2018-Apr-22 01:29N 09°22' W 079°53'0 0.0
2018-Apr-22 00:59N 09°22' W 079°53'0 0.0
2018-Apr-22 00:29N 09°22' W 079°53'0 0.0
2018-Apr-21 23:59N 09°22' W 079°53'0 0.1
2018-Apr-21 23:29N 09°22' W 079°53'1 1.5
2018-Apr-21 23:00N 09°22' W 079°53'0 0.6
2018-Apr-21 22:28N 09°21' W 079°53'0 0.0
2018-Apr-21 21:58N 09°21' W 079°53'0 0.0
2018-Apr-21 21:28N 09°21' W 079°53'0 0.0
2018-Apr-21 20:58N 09°21' W 079°53'0 0.0
2018-Apr-21 20:28N 09°21' W 079°53'0 0.0
2018-Apr-21 19:58N 09°21' W 079°53'0 0.0
2018-Apr-21 19:28N 09°21' W 079°53'0 0.0
2018-Apr-21 18:58N 09°21' W 079°53'0 0.0
2018-Apr-21 18:28N 09°21' W 079°53'0 0.0
2018-Apr-21 17:58N 09°21' W 079°53'0 0.0
2018-Apr-21 17:28N 09°21' W 079°53'0 0.0
2018-Apr-21 16:58N 09°21' W 079°53'0 0.0
2018-Apr-21 16:28N 09°21' W 079°53'0 0.0
2018-Apr-21 15:58N 09°21' W 079°53'0 0.0
2018-Apr-21 15:28N 09°21' W 079°53'0 0.0
2018-Apr-21 14:58N 09°21' W 079°53'0 0.0
2018-Apr-21 14:28N 09°21' W 079°53'0 0.0
2018-Apr-21 13:58N 09°21' W 079°53'1 1.4
2018-Apr-21 13:31N 09°22' W 079°53'3 5.5
2018-Apr-21 13:00N 09°25' W 079°54'0 0.5
2018-Apr-21 12:30N 09°25' W 079°54'2 4.3
2018-Apr-21 12:01N 09°26' W 079°53'0 0.4
2018-Apr-21 11:29N 09°26' W 079°53'0 0.1
2018-Apr-21 10:59N 09°26' W 079°53'0 0.0
2018-Apr-21 10:26N 09°26' W 079°53'0 0.1
2018-Apr-21 09:59N 09°26' W 079°53'0 0.0
2018-Apr-21 09:26N 09°26' W 079°53'0 0.0
2018-Apr-21 08:59N 09°26' W 079°53'0 0.0
2018-Apr-21 08:29N 09°26' W 079°53'0 0.0
2018-Apr-21 07:56N 09°26' W 079°53'0 0.0
2018-Apr-21 07:29N 09°26' W 079°53'0 0.0
2018-Apr-21 06:50N 09°26' W 079°53'0 0.0
2018-Apr-21 06:29N 09°26' W 079°53'0 0.0
2018-Apr-21 05:59N 09°26' W 079°53'0 0.0
2018-Apr-21 05:29N 09°26' W 079°53'0 0.0
2018-Apr-21 04:59N 09°26' W 079°53'0 0.0
2018-Apr-21 04:29N 09°26' W 079°53'0 0.0
2018-Apr-21 03:56N 09°26' W 079°53'0 0.0
2018-Apr-21 03:29N 09°26' W 079°53'0 0.0
2018-Apr-21 02:59N 09°26' W 079°53'0 0.0
2018-Apr-21 02:29N 09°26' W 079°53'0 0.0
2018-Apr-21 01:56N 09°26' W 079°53'0 0.0
2018-Apr-21 01:29N 09°26' W 079°53'0 0.0
2018-Apr-21 00:59N 09°26' W 079°53'0 0.0
2018-Apr-21 00:29N 09°26' W 079°53'0 0.0
2018-Apr-20 23:59N 09°26' W 079°53'0 0.0
2018-Apr-20 23:29N 09°26' W 079°53'0 0.0
2018-Apr-20 22:56N 09°26' W 079°53'0 0.0
2018-Apr-20 22:29N 09°26' W 079°53'0 0.0
2018-Apr-20 21:59N 09°26' W 079°53'0 0.0
2018-Apr-20 21:29N 09°26' W 079°53'0 0.0
2018-Apr-20 20:59N 09°26' W 079°53'0 0.0
2018-Apr-20 20:26N 09°26' W 079°53'0 0.0
2018-Apr-20 19:59N 09°26' W 079°53'0 0.0
2018-Apr-20 19:29N 09°26' W 079°53'0 0.0
2018-Apr-20 18:59N 09°26' W 079°53'0 0.0
2018-Apr-20 18:29N 09°26' W 079°53'0 0.0
2018-Apr-20 17:59N 09°26' W 079°53'0 0.0
2018-Apr-20 17:23N 09°26' W 079°53'0 0.1
2018-Apr-20 16:59N 09°26' W 079°53'0 0.0
2018-Apr-20 16:29N 09°26' W 079°53'0 0.0
2018-Apr-20 15:57N 09°26' W 079°53'0 0.1
2018-Apr-20 15:30N 09°26' W 079°53'0 0.0
2018-Apr-20 15:00N 09°26' W 079°53'0 0.0
2018-Apr-20 14:30N 09°26' W 079°53'0 0.0
2018-Apr-20 13:57N 09°26' W 079°53'0 0.1
2018-Apr-20 13:30N 09°26' W 079°53'0 0.0
2018-Apr-20 12:57N 09°26' W 079°53'0 0.1
2018-Apr-20 12:30N 09°26' W 079°53'0 0.0
2018-Apr-20 12:00N 09°26' W 079°53'0 0.0
2018-Apr-20 11:30N 09°26' W 079°53'0 0.1
2018-Apr-20 11:00N 09°26' W 079°53'0 0.1
2018-Apr-20 10:30N 09°26' W 079°53'0 0.0
2018-Apr-20 09:57N 09°26' W 079°53'0 0.1
2018-Apr-20 09:30N 09°26' W 079°53'0 0.0
2018-Apr-20 09:00N 09°26' W 079°53'0 0.0
2018-Apr-20 08:30N 09°26' W 079°53'0 0.0
2018-Apr-20 08:00N 09°26' W 079°53'0 0.0
2018-Apr-20 07:30N 09°26' W 079°53'0 0.0
2018-Apr-20 07:00N 09°26' W 079°53'0 0.0
2018-Apr-20 06:30N 09°26' W 079°53'0 0.0
2018-Apr-20 06:00N 09°26' W 079°53'0 0.0
2018-Apr-20 05:27N 09°26' W 079°53'0 0.0
2018-Apr-20 04:54N 09°26' W 079°53'0 0.0
2018-Apr-20 04:30N 09°26' W 079°53'0 0.0
2018-Apr-20 04:00N 09°26' W 079°53'0 0.0
2018-Apr-20 03:27N 09°26' W 079°53'0 0.0
2018-Apr-20 02:57N 09°26' W 079°53'0 0.0
2018-Apr-20 02:30N 09°26' W 079°53'0 0.0
2018-Apr-20 02:00N 09°26' W 079°53'0 0.0
2018-Apr-20 01:30N 09°26' W 079°53'0 0.0
2018-Apr-20 01:00N 09°26' W 079°53'0 0.0
2018-Apr-20 00:18N 09°26' W 079°53'0 0.0
2018-Apr-19 23:54N 09°26' W 079°53'0 0.1
2018-Apr-19 23:30N 09°26' W 079°53'0 0.0
2018-Apr-19 23:00N 09°26' W 079°53'0 0.0
2018-Apr-19 22:30N 09°26' W 079°53'0 0.0
2018-Apr-19 22:00N 09°26' W 079°53'0 0.0
2018-Apr-19 21:21N 09°26' W 079°53'0 0.0
2018-Apr-19 21:00N 09°26' W 079°53'0 0.0
2018-Apr-19 20:30N 09°26' W 079°53'0 0.0
2018-Apr-19 20:00N 09°26' W 079°53'0 0.0
2018-Apr-19 19:30N 09°26' W 079°53'0 0.0
2018-Apr-19 19:00N 09°26' W 079°53'0 0.0
2018-Apr-19 18:30N 09°26' W 079°53'0 0.0
2018-Apr-19 18:00N 09°26' W 079°53'0 0.0
2018-Apr-19 17:30N 09°26' W 079°53'0 0.1
2018-Apr-19 17:00N 09°26' W 079°53'3 6.5
2018-Apr-19 16:30N 09°23' W 079°54'2 2.9
2018-Apr-19 15:58N 09°22' W 079°53'0 0.0
2018-Apr-19 15:28N 09°22' W 079°53'0 0.0
2018-Apr-19 14:58N 09°22' W 079°53'1 1.4
2018-Apr-19 14:30N 09°22' W 079°53'0 0.3
2018-Apr-19 13:58N 09°22' W 079°53'0 0.0
2018-Apr-19 13:28N 09°22' W 079°53'0 0.0
2018-Apr-19 12:58N 09°22' W 079°53'0 0.0
2018-Apr-19 12:28N 09°22' W 079°53'0 0.0
2018-Apr-19 11:58N 09°22' W 079°53'0 0.0
2018-Apr-19 11:28N 09°22' W 079°53'0 0.0
2018-Apr-19 10:58N 09°22' W 079°53'0 0.0
2018-Apr-19 10:28N 09°22' W 079°53'0 0.0
2018-Apr-19 09:58N 09°22' W 079°53'0 0.0
2018-Apr-19 09:28N 09°22' W 079°53'0 0.0
2018-Apr-19 08:58N 09°22' W 079°53'0 0.0
2018-Apr-19 08:28N 09°22' W 079°53'0 0.0
2018-Apr-19 07:58N 09°22' W 079°53'0 0.0
2018-Apr-19 07:25N 09°22' W 079°53'0 0.0
2018-Apr-19 06:58N 09°22' W 079°53'0 0.0
2018-Apr-19 06:28N 09°22' W 079°53'0 0.0
2018-Apr-19 05:58N 09°22' W 079°53'0 0.0
2018-Apr-19 05:28N 09°22' W 079°53'0 0.0
2018-Apr-19 04:58N 09°22' W 079°53'0 0.0
2018-Apr-19 04:28N 09°22' W 079°53'0 0.0
2018-Apr-19 03:58N 09°22' W 079°53'0 0.0
2018-Apr-19 03:28N 09°22' W 079°53'0 0.0
2018-Apr-19 02:58N 09°22' W 079°53'0 0.0
2018-Apr-19 02:28N 09°22' W 079°53'0 0.0
2018-Apr-19 01:58N 09°22' W 079°53'0 0.0
2018-Apr-19 01:28N 09°22' W 079°53'0 0.0
2018-Apr-19 00:57N 09°22' W 079°53'1 1.4
2018-Apr-19 00:30N 09°22' W 079°54'2 4.6
2018-Apr-19 00:00N 09°25' W 079°54'5 9.9
2018-Apr-18 23:30N 09°29' W 079°57'713.3
2018-Apr-18 22:58N 09°32' W 080°03'  
2018-Apr-15 21:32N 09°33' W 079°56'011.9
2018-Apr-15 21:30N 09°33' W 079°56'510.8
2018-Apr-15 21:00N 09°28' W 079°54'510.9
2018-Apr-15 20:30N 09°22' W 079°54'1 1.2
2018-Apr-15 20:00N 09°22' W 079°53'0 0.0
2018-Apr-15 19:30N 09°22' W 079°53'0 0.0
2018-Apr-15 19:00N 09°22' W 079°53'0 0.0
2018-Apr-15 18:30N 09°22' W 079°53'0 0.0
2018-Apr-15 18:00N 09°22' W 079°53'0 0.0
2018-Apr-15 17:30N 09°22' W 079°53'0 0.0
2018-Apr-15 17:00N 09°22' W 079°53'0 0.0
2018-Apr-15 16:30N 09°22' W 079°53'0 0.0
2018-Apr-15 16:00N 09°22' W 079°53'0 0.0
2018-Apr-15 15:30N 09°22' W 079°53'0 0.0
2018-Apr-15 15:00N 09°22' W 079°53'0 0.0
2018-Apr-15 14:30N 09°22' W 079°53'0 0.0
2018-Apr-15 14:00N 09°22' W 079°53'0 0.0
2018-Apr-15 13:30N 09°22' W 079°53'0 0.0
2018-Apr-15 13:00N 09°22' W 079°53'0 0.0
2018-Apr-15 12:30N 09°22' W 079°53'0 0.0
2018-Apr-15 12:00N 09°22' W 079°53'0 0.0
2018-Apr-15 11:30N 09°22' W 079°53'0 0.0
2018-Apr-15 11:00N 09°22' W 079°53'0 0.0
2018-Apr-15 10:30N 09°22' W 079°53'0 0.0
2018-Apr-15 10:00N 09°22' W 079°53'0 0.0
2018-Apr-15 09:30N 09°22' W 079°53'0 0.1
2018-Apr-15 09:00N 09°22' W 079°53'1 1.9
2018-Apr-15 08:30N 09°21' W 079°53'0 0.0
2018-Apr-15 07:59N 09°21' W 079°53'0 0.0
2018-Apr-15 07:29N 09°21' W 079°53'0 0.0
2018-Apr-15 06:59N 09°21' W 079°53'0 0.0
2018-Apr-15 06:29N 09°21' W 079°53'0 0.0
2018-Apr-15 05:59N 09°21' W 079°53'0 0.0
2018-Apr-15 05:29N 09°21' W 079°53'0 0.0
2018-Apr-15 04:59N 09°21' W 079°53'0 0.0
2018-Apr-15 04:29N 09°21' W 079°53'0 0.0
2018-Apr-15 03:59N 09°21' W 079°53'0 0.0
2018-Apr-15 03:29N 09°21' W 079°53'0 0.0
2018-Apr-15 02:59N 09°21' W 079°53'0 0.0
2018-Apr-15 02:29N 09°21' W 079°53'0 0.0
2018-Apr-15 01:59N 09°21' W 079°53'0 0.0
2018-Apr-15 01:29N 09°21' W 079°53'0 0.0
2018-Apr-15 00:59N 09°21' W 079°53'0 0.0
2018-Apr-15 00:29N 09°21' W 079°53'0 0.0
2018-Apr-14 23:59N 09°21' W 079°53'0 0.0
2018-Apr-14 23:29N 09°21' W 079°53'  

Dump ship's entire track history